sensor_id;sensor_type;location;lat;lon;timestamp;P1;durP1;ratioP1;P2;durP2;ratioP2
34737;SDS011;39910;47.154;27.614;2024-01-30T00:01:52;12.75;;;11.98;;
34737;SDS011;39910;47.154;27.614;2024-01-30T00:04:17;11.80;;;11.18;;
34737;SDS011;39910;47.154;27.614;2024-01-30T00:06:43;11.23;;;10.63;;
34737;SDS011;39910;47.154;27.614;2024-01-30T00:09:08;10.52;;;10.02;;
34737;SDS011;39910;47.154;27.614;2024-01-30T00:11:35;11.25;;;10.65;;
34737;SDS011;39910;47.154;27.614;2024-01-30T00:14:01;11.13;;;10.52;;
34737;SDS011;39910;47.154;27.614;2024-01-30T00:16:27;11.35;;;10.75;;
34737;SDS011;39910;47.154;27.614;2024-01-30T00:18:53;11.32;;;10.73;;
34737;SDS011;39910;47.154;27.614;2024-01-30T00:21:18;11.88;;;11.27;;
34737;SDS011;39910;47.154;27.614;2024-01-30T00:23:44;11.30;;;10.70;;
34737;SDS011;39910;47.154;27.614;2024-01-30T00:26:09;11.27;;;10.68;;
34737;SDS011;39910;47.154;27.614;2024-01-30T00:28:35;13.18;;;12.38;;
34737;SDS011;39910;47.154;27.614;2024-01-30T00:31:00;12.15;;;11.48;;
34737;SDS011;39910;47.154;27.614;2024-01-30T00:33:26;12.30;;;11.60;;
34737;SDS011;39910;47.154;27.614;2024-01-30T00:35:51;11.88;;;11.18;;
34737;SDS011;39910;47.154;27.614;2024-01-30T00:38:16;11.38;;;10.77;;
34737;SDS011;39910;47.154;27.614;2024-01-30T00:40:42;12.18;;;11.48;;
34737;SDS011;39910;47.154;27.614;2024-01-30T00:43:08;12.05;;;11.35;;
34737;SDS011;39910;47.154;27.614;2024-01-30T00:45:33;12.07;;;11.45;;
34737;SDS011;39910;47.154;27.614;2024-01-30T00:47:58;12.02;;;11.40;;
34737;SDS011;39910;47.154;27.614;2024-01-30T00:50:25;12.50;;;11.80;;
34737;SDS011;39910;47.154;27.614;2024-01-30T00:52:50;12.65;;;11.95;;
34737;SDS011;39910;47.154;27.614;2024-01-30T00:55:15;12.00;;;11.38;;
34737;SDS011;39910;47.154;27.614;2024-01-30T00:57:41;11.57;;;10.98;;
34737;SDS011;39910;47.154;27.614;2024-01-30T01:00:07;11.90;;;11.30;;
34737;SDS011;39910;47.154;27.614;2024-01-30T01:02:34;12.55;;;11.85;;
34737;SDS011;39910;47.154;27.614;2024-01-30T01:04:59;12.32;;;11.63;;
34737;SDS011;39910;47.154;27.614;2024-01-30T01:07:25;12.75;;;12.05;;
34737;SDS011;39910;47.154;27.614;2024-01-30T01:09:50;11.57;;;10.98;;
34737;SDS011;39910;47.154;27.614;2024-01-30T01:12:15;13.18;;;12.38;;
34737;SDS011;39910;47.154;27.614;2024-01-30T01:14:41;11.77;;;11.18;;
34737;SDS011;39910;47.154;27.614;2024-01-30T01:17:07;12.95;;;12.23;;
34737;SDS011;39910;47.154;27.614;2024-01-30T01:19:32;12.38;;;11.68;;
34737;SDS011;39910;47.154;27.614;2024-01-30T01:21:57;13.15;;;12.35;;
34737;SDS011;39910;47.154;27.614;2024-01-30T01:24:23;12.13;;;11.43;;
34737;SDS011;39910;47.154;27.614;2024-01-30T01:26:49;13.40;;;12.60;;
34737;SDS011;39910;47.154;27.614;2024-01-30T01:29:14;11.90;;;11.30;;
34737;SDS011;39910;47.154;27.614;2024-01-30T01:31:41;12.00;;;11.40;;
34737;SDS011;39910;47.154;27.614;2024-01-30T01:34:12;12.00;;;11.30;;
34737;SDS011;39910;47.154;27.614;2024-01-30T01:36:38;12.18;;;11.50;;
34737;SDS011;39910;47.154;27.614;2024-01-30T01:39:03;12.75;;;12.05;;
34737;SDS011;39910;47.154;27.614;2024-01-30T01:41:32;13.00;;;12.30;;
34737;SDS011;39910;47.154;27.614;2024-01-30T01:43:58;12.65;;;11.95;;
34737;SDS011;39910;47.154;27.614;2024-01-30T01:46:25;12.40;;;11.70;;
34737;SDS011;39910;47.154;27.614;2024-01-30T01:48:51;12.80;;;12.05;;
34737;SDS011;39910;47.154;27.614;2024-01-30T01:51:16;12.77;;;12.07;;
34737;SDS011;39910;47.154;27.614;2024-01-30T01:53:41;13.75;;;12.85;;
34737;SDS011;39910;47.154;27.614;2024-01-30T01:56:07;12.05;;;11.45;;
34737;SDS011;39910;47.154;27.614;2024-01-30T01:58:33;12.07;;;11.38;;
34737;SDS011;39910;47.154;27.614;2024-01-30T02:00:58;12.32;;;11.63;;
34737;SDS011;39910;47.154;27.614;2024-01-30T02:03:24;12.02;;;11.32;;
34737;SDS011;39910;47.154;27.614;2024-01-30T02:05:53;12.07;;;11.38;;
34737;SDS011;39910;47.154;27.614;2024-01-30T02:08:18;12.57;;;11.88;;
34737;SDS011;39910;47.154;27.614;2024-01-30T02:10:45;10.88;;;10.38;;
34737;SDS011;39910;47.154;27.614;2024-01-30T02:13:10;10.52;;;10.02;;
34737;SDS011;39910;47.154;27.614;2024-01-30T02:15:36;11.60;;;11.00;;
34737;SDS011;39910;47.154;27.614;2024-01-30T02:18:01;11.90;;;11.20;;
34737;SDS011;39910;47.154;27.614;2024-01-30T02:20:26;12.32;;;11.63;;
34737;SDS011;39910;47.154;27.614;2024-01-30T02:22:54;11.70;;;11.10;;
34737;SDS011;39910;47.154;27.614;2024-01-30T02:25:29;11.68;;;11.05;;
34737;SDS011;39910;47.154;27.614;2024-01-30T02:27:55;12.20;;;11.50;;
34737;SDS011;39910;47.154;27.614;2024-01-30T02:30:20;12.32;;;11.63;;
34737;SDS011;39910;47.154;27.614;2024-01-30T02:32:46;11.95;;;11.25;;
34737;SDS011;39910;47.154;27.614;2024-01-30T02:35:11;11.65;;;11.05;;
34737;SDS011;39910;47.154;27.614;2024-01-30T02:37:36;11.63;;;11.02;;
34737;SDS011;39910;47.154;27.614;2024-01-30T02:40:02;12.10;;;11.40;;
34737;SDS011;39910;47.154;27.614;2024-01-30T02:42:27;11.05;;;10.50;;
34737;SDS011;39910;47.154;27.614;2024-01-30T02:44:53;11.80;;;11.15;;
34737;SDS011;39910;47.154;27.614;2024-01-30T02:47:18;11.05;;;10.45;;
34737;SDS011;39910;47.154;27.614;2024-01-30T02:49:43;11.55;;;10.95;;
34737;SDS011;39910;47.154;27.614;2024-01-30T02:52:09;11.43;;;10.82;;
34737;SDS011;39910;47.154;27.614;2024-01-30T02:54:34;11.52;;;10.90;;
34737;SDS011;39910;47.154;27.614;2024-01-30T02:56:59;12.40;;;11.70;;
34737;SDS011;39910;47.154;27.614;2024-01-30T02:59:25;11.20;;;10.60;;
34737;SDS011;39910;47.154;27.614;2024-01-30T03:01:50;12.18;;;11.48;;
34737;SDS011;39910;47.154;27.614;2024-01-30T03:04:15;10.13;;;9.63;;
34737;SDS011;39910;47.154;27.614;2024-01-30T03:06:47;12.18;;;11.48;;
34737;SDS011;39910;47.154;27.614;2024-01-30T03:09:12;11.95;;;11.27;;
34737;SDS011;39910;47.154;27.614;2024-01-30T03:11:38;12.43;;;11.73;;
34737;SDS011;39910;47.154;27.614;2024-01-30T03:14:03;12.40;;;11.70;;
34737;SDS011;39910;47.154;27.614;2024-01-30T03:16:29;12.18;;;11.48;;
34737;SDS011;39910;47.154;27.614;2024-01-30T03:18:55;11.82;;;11.23;;
34737;SDS011;39910;47.154;27.614;2024-01-30T03:21:20;12.85;;;12.10;;
34737;SDS011;39910;47.154;27.614;2024-01-30T03:23:46;11.68;;;11.07;;
34737;SDS011;39910;47.154;27.614;2024-01-30T03:26:12;11.90;;;11.27;;
34737;SDS011;39910;47.154;27.614;2024-01-30T03:28:38;11.60;;;11.00;;
34737;SDS011;39910;47.154;27.614;2024-01-30T03:31:03;11.18;;;10.57;;
34737;SDS011;39910;47.154;27.614;2024-01-30T03:33:28;12.32;;;11.63;;
34737;SDS011;39910;47.154;27.614;2024-01-30T03:35:54;12.05;;;11.35;;
34737;SDS011;39910;47.154;27.614;2024-01-30T03:38:19;11.90;;;11.23;;
34737;SDS011;39910;47.154;27.614;2024-01-30T03:40:46;11.65;;;11.05;;
34737;SDS011;39910;47.154;27.614;2024-01-30T03:43:11;11.80;;;11.15;;
34737;SDS011;39910;47.154;27.614;2024-01-30T03:45:36;11.70;;;11.10;;
34737;SDS011;39910;47.154;27.614;2024-01-30T03:48:02;11.73;;;11.07;;
34737;SDS011;39910;47.154;27.614;2024-01-30T03:50:27;12.15;;;11.52;;
34737;SDS011;39910;47.154;27.614;2024-01-30T03:52:53;11.50;;;10.90;;
34737;SDS011;39910;47.154;27.614;2024-01-30T03:55:18;12.20;;;11.50;;
34737;SDS011;39910;47.154;27.614;2024-01-30T03:57:45;11.20;;;10.60;;
34737;SDS011;39910;47.154;27.614;2024-01-30T04:00:10;11.77;;;11.10;;
34737;SDS011;39910;47.154;27.614;2024-01-30T04:02:36;11.73;;;11.13;;
34737;SDS011;39910;47.154;27.614;2024-01-30T04:05:01;10.43;;;9.93;;
34737;SDS011;39910;47.154;27.614;2024-01-30T04:07:27;12.13;;;11.43;;
34737;SDS011;39910;47.154;27.614;2024-01-30T04:09:52;11.43;;;10.82;;
34737;SDS011;39910;47.154;27.614;2024-01-30T04:12:17;12.20;;;11.50;;
34737;SDS011;39910;47.154;27.614;2024-01-30T04:14:43;12.20;;;11.50;;
34737;SDS011;39910;47.154;27.614;2024-01-30T04:17:09;12.15;;;11.45;;
34737;SDS011;39910;47.154;27.614;2024-01-30T04:19:36;11.00;;;10.48;;
34737;SDS011;39910;47.154;27.614;2024-01-30T04:22:02;11.52;;;10.93;;
34737;SDS011;39910;47.154;27.614;2024-01-30T04:24:27;12.25;;;11.55;;
34737;SDS011;39910;47.154;27.614;2024-01-30T04:26:53;10.88;;;10.32;;
34737;SDS011;39910;47.154;27.614;2024-01-30T04:29:18;11.50;;;10.90;;
34737;SDS011;39910;47.154;27.614;2024-01-30T04:31:44;11.68;;;11.05;;
34737;SDS011;39910;47.154;27.614;2024-01-30T04:34:09;11.30;;;10.70;;
34737;SDS011;39910;47.154;27.614;2024-01-30T04:36:35;13.40;;;12.60;;
34737;SDS011;39910;47.154;27.614;2024-01-30T04:39:00;12.32;;;11.63;;
34737;SDS011;39910;47.154;27.614;2024-01-30T04:41:25;11.75;;;11.13;;
34737;SDS011;39910;47.154;27.614;2024-01-30T04:43:53;12.10;;;11.40;;
34737;SDS011;39910;47.154;27.614;2024-01-30T04:46:19;10.80;;;10.30;;
34737;SDS011;39910;47.154;27.614;2024-01-30T04:48:44;11.98;;;11.27;;
34737;SDS011;39910;47.154;27.614;2024-01-30T04:51:10;12.07;;;11.38;;
34737;SDS011;39910;47.154;27.614;2024-01-30T04:53:35;10.88;;;10.32;;
34737;SDS011;39910;47.154;27.614;2024-01-30T04:56:01;12.25;;;11.55;;
34737;SDS011;39910;47.154;27.614;2024-01-30T04:58:26;12.10;;;11.40;;
34737;SDS011;39910;47.154;27.614;2024-01-30T05:00:51;12.95;;;12.18;;
34737;SDS011;39910;47.154;27.614;2024-01-30T05:03:17;13.60;;;12.80;;
34737;SDS011;39910;47.154;27.614;2024-01-30T05:05:43;13.23;;;12.43;;
34737;SDS011;39910;47.154;27.614;2024-01-30T05:08:08;12.88;;;12.18;;
34737;SDS011;39910;47.154;27.614;2024-01-30T05:10:33;12.20;;;11.50;;
34737;SDS011;39910;47.154;27.614;2024-01-30T05:12:59;12.70;;;11.98;;
34737;SDS011;39910;47.154;27.614;2024-01-30T05:15:24;11.65;;;11.05;;
34737;SDS011;39910;47.154;27.614;2024-01-30T05:17:49;12.68;;;11.98;;
34737;SDS011;39910;47.154;27.614;2024-01-30T05:20:15;12.07;;;11.38;;
34737;SDS011;39910;47.154;27.614;2024-01-30T05:22:40;12.43;;;11.73;;
34737;SDS011;39910;47.154;27.614;2024-01-30T05:25:10;11.90;;;11.30;;
34737;SDS011;39910;47.154;27.614;2024-01-30T05:27:35;13.20;;;12.50;;
34737;SDS011;39910;47.154;27.614;2024-01-30T05:30:01;12.63;;;11.93;;
34737;SDS011;39910;47.154;27.614;2024-01-30T05:32:26;13.07;;;12.27;;
34737;SDS011;39910;47.154;27.614;2024-01-30T05:34:51;13.23;;;12.43;;
34737;SDS011;39910;47.154;27.614;2024-01-30T05:37:17;12.57;;;11.88;;
34737;SDS011;39910;47.154;27.614;2024-01-30T05:39:42;12.98;;;12.18;;
34737;SDS011;39910;47.154;27.614;2024-01-30T05:42:08;12.07;;;11.38;;
34737;SDS011;39910;47.154;27.614;2024-01-30T05:44:33;12.23;;;11.52;;
34737;SDS011;39910;47.154;27.614;2024-01-30T05:46:59;12.07;;;11.38;;
34737;SDS011;39910;47.154;27.614;2024-01-30T05:49:24;13.13;;;12.32;;
34737;SDS011;39910;47.154;27.614;2024-01-30T05:51:49;12.60;;;11.85;;
34737;SDS011;39910;47.154;27.614;2024-01-30T05:54:14;13.57;;;12.70;;
34737;SDS011;39910;47.154;27.614;2024-01-30T05:56:40;12.68;;;11.98;;
34737;SDS011;39910;47.154;27.614;2024-01-30T05:59:05;11.25;;;10.63;;
34737;SDS011;39910;47.154;27.614;2024-01-30T06:01:30;11.55;;;10.85;;
34737;SDS011;39910;47.154;27.614;2024-01-30T06:03:56;10.07;;;9.52;;
34737;SDS011;39910;47.154;27.614;2024-01-30T06:06:21;10.30;;;9.70;;
34737;SDS011;39910;47.154;27.614;2024-01-30T06:08:46;10.38;;;9.77;;
34737;SDS011;39910;47.154;27.614;2024-01-30T06:11:12;8.77;;;8.35;;
34737;SDS011;39910;47.154;27.614;2024-01-30T06:13:37;9.15;;;8.65;;
34737;SDS011;39910;47.154;27.614;2024-01-30T06:16:03;10.32;;;9.73;;
34737;SDS011;39910;47.154;27.614;2024-01-30T06:18:28;9.80;;;9.30;;
34737;SDS011;39910;47.154;27.614;2024-01-30T06:20:55;10.00;;;9.50;;
34737;SDS011;39910;47.154;27.614;2024-01-30T06:23:20;10.77;;;10.18;;
34737;SDS011;39910;47.154;27.614;2024-01-30T06:25:46;9.48;;;9.00;;
34737;SDS011;39910;47.154;27.614;2024-01-30T06:28:12;9.73;;;9.23;;
34737;SDS011;39910;47.154;27.614;2024-01-30T06:30:37;10.85;;;10.35;;
34737;SDS011;39910;47.154;27.614;2024-01-30T06:33:03;11.35;;;10.75;;
34737;SDS011;39910;47.154;27.614;2024-01-30T06:35:28;9.60;;;9.20;;
34737;SDS011;39910;47.154;27.614;2024-01-30T06:37:54;11.18;;;10.68;;
34737;SDS011;39910;47.154;27.614;2024-01-30T06:40:19;10.70;;;10.20;;
34737;SDS011;39910;47.154;27.614;2024-01-30T06:42:45;11.27;;;10.77;;
34737;SDS011;39910;47.154;27.614;2024-01-30T06:45:11;10.98;;;10.48;;
34737;SDS011;39910;47.154;27.614;2024-01-30T06:47:36;10.95;;;10.45;;
34737;SDS011;39910;47.154;27.614;2024-01-30T06:50:02;10.93;;;10.43;;
34737;SDS011;39910;47.154;27.614;2024-01-30T06:52:28;11.30;;;10.80;;
34737;SDS011;39910;47.154;27.614;2024-01-30T06:54:53;11.77;;;11.27;;
34737;SDS011;39910;47.154;27.614;2024-01-30T06:57:19;11.82;;;11.32;;
34737;SDS011;39910;47.154;27.614;2024-01-30T06:59:45;11.70;;;11.20;;
34737;SDS011;39910;47.154;27.614;2024-01-30T07:02:10;11.60;;;11.10;;
34737;SDS011;39910;47.154;27.614;2024-01-30T07:04:36;11.93;;;11.43;;
34737;SDS011;39910;47.154;27.614;2024-01-30T07:07:02;11.90;;;11.40;;
34737;SDS011;39910;47.154;27.614;2024-01-30T07:09:28;12.40;;;11.80;;
34737;SDS011;39910;47.154;27.614;2024-01-30T07:11:54;12.10;;;11.57;;
34737;SDS011;39910;47.154;27.614;2024-01-30T07:14:20;12.18;;;11.68;;
34737;SDS011;39910;47.154;27.614;2024-01-30T07:16:46;12.02;;;11.52;;
34737;SDS011;39910;47.154;27.614;2024-01-30T07:19:11;12.05;;;11.55;;
34737;SDS011;39910;47.154;27.614;2024-01-30T07:21:36;12.30;;;11.80;;
34737;SDS011;39910;47.154;27.614;2024-01-30T07:24:02;12.10;;;11.60;;
34737;SDS011;39910;47.154;27.614;2024-01-30T07:26:27;12.07;;;11.57;;
34737;SDS011;39910;47.154;27.614;2024-01-30T07:28:52;12.20;;;11.70;;
34737;SDS011;39910;47.154;27.614;2024-01-30T07:31:18;12.07;;;11.57;;
34737;SDS011;39910;47.154;27.614;2024-01-30T07:33:45;12.55;;;11.95;;
34737;SDS011;39910;47.154;27.614;2024-01-30T07:36:11;12.57;;;11.98;;
34737;SDS011;39910;47.154;27.614;2024-01-30T07:38:36;12.32;;;11.80;;
34737;SDS011;39910;47.154;27.614;2024-01-30T07:41:02;12.70;;;12.10;;
34737;SDS011;39910;47.154;27.614;2024-01-30T07:43:27;12.60;;;12.00;;
34737;SDS011;39910;47.154;27.614;2024-01-30T07:45:52;13.00;;;12.40;;
34737;SDS011;39910;47.154;27.614;2024-01-30T07:48:18;12.70;;;12.10;;
34737;SDS011;39910;47.154;27.614;2024-01-30T07:50:43;12.27;;;11.77;;
34737;SDS011;39910;47.154;27.614;2024-01-30T07:53:08;12.70;;;12.10;;
34737;SDS011;39910;47.154;27.614;2024-01-30T07:55:34;12.65;;;12.05;;
34737;SDS011;39910;47.154;27.614;2024-01-30T07:57:59;12.60;;;12.00;;
34737;SDS011;39910;47.154;27.614;2024-01-30T08:00:25;13.10;;;12.50;;
34737;SDS011;39910;47.154;27.614;2024-01-30T08:02:50;13.65;;;13.05;;
34737;SDS011;39910;47.154;27.614;2024-01-30T08:05:19;12.70;;;12.10;;
34737;SDS011;39910;47.154;27.614;2024-01-30T08:07:44;12.55;;;11.95;;
34737;SDS011;39910;47.154;27.614;2024-01-30T08:10:11;12.60;;;12.00;;
34737;SDS011;39910;47.154;27.614;2024-01-30T08:12:37;12.73;;;12.13;;
34737;SDS011;39910;47.154;27.614;2024-01-30T08:15:04;12.40;;;11.80;;
34737;SDS011;39910;47.154;27.614;2024-01-30T08:17:30;12.60;;;12.00;;
34737;SDS011;39910;47.154;27.614;2024-01-30T08:19:55;12.25;;;11.75;;
34737;SDS011;39910;47.154;27.614;2024-01-30T08:22:20;12.68;;;12.07;;
34737;SDS011;39910;47.154;27.614;2024-01-30T08:24:46;12.57;;;11.98;;
34737;SDS011;39910;47.154;27.614;2024-01-30T08:27:11;12.50;;;11.90;;
34737;SDS011;39910;47.154;27.614;2024-01-30T08:29:37;12.20;;;11.70;;
34737;SDS011;39910;47.154;27.614;2024-01-30T08:32:04;12.38;;;11.82;;
34737;SDS011;39910;47.154;27.614;2024-01-30T08:34:29;12.85;;;12.25;;
34737;SDS011;39910;47.154;27.614;2024-01-30T08:36:54;12.15;;;11.65;;
34737;SDS011;39910;47.154;27.614;2024-01-30T08:39:20;12.80;;;12.20;;
34737;SDS011;39910;47.154;27.614;2024-01-30T08:41:45;12.65;;;12.05;;
34737;SDS011;39910;47.154;27.614;2024-01-30T08:44:10;12.30;;;11.73;;
34737;SDS011;39910;47.154;27.614;2024-01-30T08:46:36;12.32;;;11.77;;
34737;SDS011;39910;47.154;27.614;2024-01-30T08:49:02;11.98;;;11.48;;
34737;SDS011;39910;47.154;27.614;2024-01-30T08:51:28;12.00;;;11.50;;
34737;SDS011;39910;47.154;27.614;2024-01-30T08:53:53;12.02;;;11.52;;
34737;SDS011;39910;47.154;27.614;2024-01-30T08:56:19;12.07;;;11.57;;
34737;SDS011;39910;47.154;27.614;2024-01-30T08:58:44;12.05;;;11.55;;
34737;SDS011;39910;47.154;27.614;2024-01-30T09:01:09;12.52;;;11.93;;
34737;SDS011;39910;47.154;27.614;2024-01-30T09:03:35;12.35;;;11.82;;
34737;SDS011;39910;47.154;27.614;2024-01-30T09:06:01;12.40;;;11.80;;
34737;SDS011;39910;47.154;27.614;2024-01-30T09:08:27;12.05;;;11.55;;
34737;SDS011;39910;47.154;27.614;2024-01-30T09:10:52;12.00;;;11.50;;
34737;SDS011;39910;47.154;27.614;2024-01-30T09:13:17;12.60;;;12.00;;
34737;SDS011;39910;47.154;27.614;2024-01-30T09:15:43;12.88;;;12.27;;
34737;SDS011;39910;47.154;27.614;2024-01-30T09:18:09;12.73;;;12.13;;
34737;SDS011;39910;47.154;27.614;2024-01-30T09:20:34;12.60;;;12.00;;
34737;SDS011;39910;47.154;27.614;2024-01-30T09:22:59;12.82;;;12.23;;
34737;SDS011;39910;47.154;27.614;2024-01-30T09:25:25;12.68;;;12.07;;
34737;SDS011;39910;47.154;27.614;2024-01-30T09:27:50;12.82;;;12.23;;
34737;SDS011;39910;47.154;27.614;2024-01-30T09:30:15;12.63;;;12.02;;
34737;SDS011;39910;47.154;27.614;2024-01-30T09:32:41;12.52;;;11.93;;
34737;SDS011;39910;47.154;27.614;2024-01-30T09:35:07;12.80;;;12.20;;
34737;SDS011;39910;47.154;27.614;2024-01-30T09:37:32;12.90;;;12.30;;
34737;SDS011;39910;47.154;27.614;2024-01-30T09:39:58;13.05;;;12.45;;
34737;SDS011;39910;47.154;27.614;2024-01-30T09:42:27;13.15;;;12.55;;
34737;SDS011;39910;47.154;27.614;2024-01-30T09:44:54;12.70;;;12.10;;
34737;SDS011;39910;47.154;27.614;2024-01-30T09:47:20;12.50;;;11.90;;
34737;SDS011;39910;47.154;27.614;2024-01-30T09:49:45;12.52;;;11.93;;
34737;SDS011;39910;47.154;27.614;2024-01-30T09:52:11;12.95;;;12.35;;
34737;SDS011;39910;47.154;27.614;2024-01-30T09:54:38;13.45;;;12.85;;
34737;SDS011;39910;47.154;27.614;2024-01-30T09:57:03;13.00;;;12.40;;
34737;SDS011;39910;47.154;27.614;2024-01-30T09:59:29;13.43;;;12.82;;
34737;SDS011;39910;47.154;27.614;2024-01-30T10:01:54;13.95;;;13.25;;
34737;SDS011;39910;47.154;27.614;2024-01-30T10:04:20;13.57;;;12.88;;
34737;SDS011;39910;47.154;27.614;2024-01-30T10:06:46;13.27;;;12.65;;
34737;SDS011;39910;47.154;27.614;2024-01-30T10:09:11;13.00;;;12.40;;
34737;SDS011;39910;47.154;27.614;2024-01-30T10:11:36;12.88;;;12.27;;
34737;SDS011;39910;47.154;27.614;2024-01-30T10:14:02;12.25;;;11.65;;
34737;SDS011;39910;47.154;27.614;2024-01-30T10:16:27;12.68;;;12.07;;
34737;SDS011;39910;47.154;27.614;2024-01-30T10:18:53;13.07;;;12.38;;
34737;SDS011;39910;47.154;27.614;2024-01-30T10:21:18;12.60;;;12.00;;
34737;SDS011;39910;47.154;27.614;2024-01-30T10:23:43;12.38;;;11.77;;
34737;SDS011;39910;47.154;27.614;2024-01-30T10:26:09;12.18;;;11.57;;
34737;SDS011;39910;47.154;27.614;2024-01-30T10:28:35;12.15;;;11.55;;
34737;SDS011;39910;47.154;27.614;2024-01-30T10:31:00;13.10;;;12.40;;
34737;SDS011;39910;47.154;27.614;2024-01-30T10:33:26;12.80;;;12.10;;
34737;SDS011;39910;47.154;27.614;2024-01-30T10:35:54;12.00;;;11.40;;
34737;SDS011;39910;47.154;27.614;2024-01-30T10:38:20;11.80;;;11.20;;
34737;SDS011;39910;47.154;27.614;2024-01-30T10:40:46;12.68;;;11.98;;
34737;SDS011;39910;47.154;27.614;2024-01-30T10:43:12;12.25;;;11.65;;
34737;SDS011;39910;47.154;27.614;2024-01-30T10:45:40;12.98;;;12.27;;
34737;SDS011;39910;47.154;27.614;2024-01-30T10:48:09;11.55;;;10.95;;
34737;SDS011;39910;47.154;27.614;2024-01-30T10:50:36;11.13;;;10.63;;
34737;SDS011;39910;47.154;27.614;2024-01-30T10:53:02;11.55;;;10.95;;
34737;SDS011;39910;47.154;27.614;2024-01-30T10:55:28;11.15;;;10.65;;
34737;SDS011;39910;47.154;27.614;2024-01-30T10:57:54;11.50;;;10.90;;
34737;SDS011;39910;47.154;27.614;2024-01-30T11:00:20;13.13;;;12.43;;
34737;SDS011;39910;47.154;27.614;2024-01-30T11:02:48;11.75;;;11.15;;
34737;SDS011;39910;47.154;27.614;2024-01-30T11:05:14;11.63;;;11.02;;
34737;SDS011;39910;47.154;27.614;2024-01-30T11:07:42;11.02;;;10.52;;
34737;SDS011;39910;47.154;27.614;2024-01-30T11:10:08;12.07;;;11.48;;
34737;SDS011;39910;47.154;27.614;2024-01-30T11:12:37;11.57;;;10.98;;
34737;SDS011;39910;47.154;27.614;2024-01-30T11:15:15;10.90;;;10.40;;
34737;SDS011;39910;47.154;27.614;2024-01-30T11:20:09;11.65;;;11.05;;
34737;SDS011;39910;47.154;27.614;2024-01-30T11:22:34;10.57;;;10.07;;
34737;SDS011;39910;47.154;27.614;2024-01-30T11:25:01;10.70;;;10.20;;
34737;SDS011;39910;47.154;27.614;2024-01-30T11:27:28;11.20;;;10.65;;
34737;SDS011;39910;47.154;27.614;2024-01-30T11:29:54;11.55;;;10.95;;
34737;SDS011;39910;47.154;27.614;2024-01-30T11:32:25;10.80;;;10.30;;
34737;SDS011;39910;47.154;27.614;2024-01-30T11:34:51;10.45;;;9.95;;
34737;SDS011;39910;47.154;27.614;2024-01-30T11:37:16;10.88;;;10.38;;
34737;SDS011;39910;47.154;27.614;2024-01-30T11:39:46;10.88;;;10.38;;
34737;SDS011;39910;47.154;27.614;2024-01-30T11:42:11;10.77;;;10.27;;
34737;SDS011;39910;47.154;27.614;2024-01-30T11:44:37;10.85;;;10.35;;
34737;SDS011;39910;47.154;27.614;2024-01-30T11:47:03;10.32;;;9.82;;
34737;SDS011;39910;47.154;27.614;2024-01-30T11:49:28;11.13;;;10.63;;
34737;SDS011;39910;47.154;27.614;2024-01-30T11:51:54;10.70;;;10.20;;
34737;SDS011;39910;47.154;27.614;2024-01-30T11:54:19;11.40;;;10.80;;
34737;SDS011;39910;47.154;27.614;2024-01-30T11:56:46;11.07;;;10.57;;
34737;SDS011;39910;47.154;27.614;2024-01-30T11:59:11;10.40;;;9.90;;
34737;SDS011;39910;47.154;27.614;2024-01-30T12:01:36;10.32;;;9.82;;
34737;SDS011;39910;47.154;27.614;2024-01-30T12:04:02;10.30;;;9.80;;
34737;SDS011;39910;47.154;27.614;2024-01-30T12:06:28;11.55;;;10.95;;
34737;SDS011;39910;47.154;27.614;2024-01-30T12:08:57;10.70;;;10.20;;
34737;SDS011;39910;47.154;27.614;2024-01-30T12:11:22;10.65;;;10.15;;
34737;SDS011;39910;47.154;27.614;2024-01-30T12:13:48;10.80;;;10.30;;
34737;SDS011;39910;47.154;27.614;2024-01-30T12:16:13;10.45;;;9.95;;
34737;SDS011;39910;47.154;27.614;2024-01-30T12:18:38;10.73;;;10.23;;
34737;SDS011;39910;47.154;27.614;2024-01-30T12:21:04;11.15;;;10.63;;
34737;SDS011;39910;47.154;27.614;2024-01-30T12:23:29;10.90;;;10.40;;
34737;SDS011;39910;47.154;27.614;2024-01-30T12:25:55;10.77;;;10.27;;
34737;SDS011;39910;47.154;27.614;2024-01-30T12:28:20;11.43;;;10.85;;
34737;SDS011;39910;47.154;27.614;2024-01-30T12:30:46;10.70;;;10.20;;
34737;SDS011;39910;47.154;27.614;2024-01-30T12:33:17;11.70;;;11.10;;
34737;SDS011;39910;47.154;27.614;2024-01-30T12:35:46;10.60;;;10.10;;
34737;SDS011;39910;47.154;27.614;2024-01-30T12:38:12;10.68;;;10.18;;
34737;SDS011;39910;47.154;27.614;2024-01-30T12:40:38;11.30;;;10.70;;
34737;SDS011;39910;47.154;27.614;2024-01-30T12:43:03;11.10;;;10.60;;
34737;SDS011;39910;47.154;27.614;2024-01-30T12:45:29;11.18;;;10.68;;
34737;SDS011;39910;47.154;27.614;2024-01-30T12:47:55;10.60;;;10.10;;
34737;SDS011;39910;47.154;27.614;2024-01-30T12:50:20;11.27;;;10.73;;
34737;SDS011;39910;47.154;27.614;2024-01-30T12:52:46;11.02;;;10.52;;
34737;SDS011;39910;47.154;27.614;2024-01-30T12:55:11;11.38;;;10.80;;
34737;SDS011;39910;47.154;27.614;2024-01-30T12:57:36;11.70;;;11.10;;
34737;SDS011;39910;47.154;27.614;2024-01-30T13:00:05;10.43;;;9.93;;
34737;SDS011;39910;47.154;27.614;2024-01-30T13:02:33;10.88;;;10.38;;
34737;SDS011;39910;47.154;27.614;2024-01-30T13:05:04;11.00;;;10.50;;
34737;SDS011;39910;47.154;27.614;2024-01-30T13:07:29;10.88;;;10.38;;
34737;SDS011;39910;47.154;27.614;2024-01-30T13:09:55;10.85;;;10.35;;
34737;SDS011;39910;47.154;27.614;2024-01-30T13:12:21;10.77;;;10.27;;
34737;SDS011;39910;47.154;27.614;2024-01-30T13:14:46;10.85;;;10.35;;
34737;SDS011;39910;47.154;27.614;2024-01-30T13:17:12;10.80;;;10.30;;
34737;SDS011;39910;47.154;27.614;2024-01-30T13:19:37;11.02;;;10.52;;
34737;SDS011;39910;47.154;27.614;2024-01-30T13:22:03;10.75;;;10.25;;
34737;SDS011;39910;47.154;27.614;2024-01-30T13:24:28;10.48;;;9.98;;
34737;SDS011;39910;47.154;27.614;2024-01-30T13:26:54;10.50;;;10.00;;
34737;SDS011;39910;47.154;27.614;2024-01-30T13:29:19;10.82;;;10.32;;
34737;SDS011;39910;47.154;27.614;2024-01-30T13:31:44;11.00;;;10.50;;
34737;SDS011;39910;47.154;27.614;2024-01-30T13:34:11;10.80;;;10.30;;
34737;SDS011;39910;47.154;27.614;2024-01-30T13:36:37;10.90;;;10.40;;
34737;SDS011;39910;47.154;27.614;2024-01-30T13:39:03;10.60;;;10.10;;
34737;SDS011;39910;47.154;27.614;2024-01-30T13:41:30;11.10;;;10.60;;
34737;SDS011;39910;47.154;27.614;2024-01-30T13:43:55;11.05;;;10.55;;
34737;SDS011;39910;47.154;27.614;2024-01-30T13:46:21;10.90;;;10.40;;
34737;SDS011;39910;47.154;27.614;2024-01-30T13:48:46;11.80;;;11.20;;
34737;SDS011;39910;47.154;27.614;2024-01-30T13:51:12;10.55;;;10.05;;
34737;SDS011;39910;47.154;27.614;2024-01-30T13:53:38;10.90;;;10.40;;
34737;SDS011;39910;47.154;27.614;2024-01-30T13:56:03;10.82;;;10.32;;
34737;SDS011;39910;47.154;27.614;2024-01-30T13:58:29;10.68;;;10.18;;
34737;SDS011;39910;47.154;27.614;2024-01-30T14:00:54;11.30;;;10.70;;
34737;SDS011;39910;47.154;27.614;2024-01-30T14:03:20;10.73;;;10.23;;
34737;SDS011;39910;47.154;27.614;2024-01-30T14:05:45;11.60;;;11.00;;